Alvarado, Minnesota
Current Conditions -  °F | °C
As of 1:03 PM on Sunday 23 Nov 2014 (Local Time) from KGFK Reporting Station
Overcast Overcast  
Wind Chill: -2°   Ceiling: 2200
Heat Index:   Visibility: 10mi
Dew Point: -3°   Wind: 17mph
Humidity: 65%   Direction: 300°WNW
Pressure: 29.43"   Gusts: NA
Location:  48.19°N, 97°W
Report Text: KGFK 231903Z 30015KT 10SM BKN022 OVC055 03/M03 A2943 RMK AO2
Loading
Personal Weather Stations






























Interactive Weather Map New forecast layout! Learn more

10-Day Weather Forecast

Advertisements
Track Severe Weather on mobile